Time;durP1;ratioP1;P1;durP2;ratioP2;P2;SDS_P1;SDS_P2;PMS_P1;PMS_P2;Temp;Humidity;BMP_temperature;BMP_pressure;BME280_temperature;BME280_humidity;BME280_pressure;Samples;Min_cycle;Max_cycle;Signal;HPM_P1;HPM_P2
2023/10/26 00:01:30;;;;;;;11.48;8.25;;;;;;;11.19;100.00;98912.16;5070178;28;20056;-83
2023/10/26 00:03:57;;;;;;;20.17;11.80;;;;;;;11.22;100.00;98906.50;5064879;28;20052;-81
2023/10/26 00:06:23;;;;;;;25.10;13.25;;;;;;;11.16;100.00;98902.06;5063320;28;20487;-80
2023/10/26 00:08:50;;;;;;;24.88;14.35;;;;;;;11.18;100.00;98907.91;5043876;28;20091;-81
2023/10/26 00:11:17;;;;;;;26.00;14.82;;;;;;;11.22;100.00;98914.38;5064444;28;20049;-79
2023/10/26 00:13:43;;;;;;;24.00;14.90;;;;;;;11.25;100.00;98908.72;5066511;28;20080;-79
2023/10/26 00:16:11;;;;;;;25.42;15.43;;;;;;;11.22;100.00;98919.59;5055743;28;20084;-80
2023/10/26 00:18:38;;;;;;;28.80;17.17;;;;;;;11.21;100.00;98913.56;5049426;28;20104;-81
2023/10/26 00:21:05;;;;;;;26.42;15.82;;;;;;;11.27;100.00;98923.22;5061757;28;20072;-83
2023/10/26 00:23:31;;;;;;;28.05;17.38;;;;;;;11.20;100.00;98919.00;5055829;28;20225;-83
2023/10/26 00:25:58;;;;;;;29.77;17.00;;;;;;;11.06;100.00;98923.41;5043401;28;20080;-81
2023/10/26 00:28:24;;;;;;;30.75;17.55;;;;;;;11.11;100.00;98926.25;5041170;28;20077;-82
2023/10/26 00:30:51;;;;;;;26.92;15.40;;;;;;;11.13;100.00;98932.09;5041495;28;20073;-81
2023/10/26 00:33:19;;;;;;;24.05;13.65;;;;;;;11.18;100.00;98936.72;5052920;28;20088;-80
2023/10/26 00:35:46;;;;;;;19.95;12.88;;;;;;;11.10;100.00;98937.72;5061388;28;20095;-83
2023/10/26 00:38:15;;;;;;;20.17;12.10;;;;;;;11.21;100.00;98947.59;5060782;28;20533;-82
2023/10/26 00:40:42;;;;;;;18.67;11.50;;;;;;;11.17;100.00;98953.44;5056804;28;20041;-82
2023/10/26 00:43:19;;;;;;;19.17;11.15;;;;;;;11.15;100.00;98958.06;5060432;28;20049;-82
2023/10/26 00:45:50;;;;;;;17.63;11.00;;;;;;;11.19;100.00;98957.47;5061353;28;20060;-82
2023/10/26 00:48:18;;;;;;;17.77;10.07;;;;;;;11.12;100.00;98953.22;5043168;28;20168;-81
2023/10/26 00:50:45;;;;;;;18.08;10.48;;;;;;;11.08;100.00;98957.25;5055545;28;20083;-82
2023/10/26 00:53:14;;;;;;;17.85;10.65;;;;;;;11.03;100.00;98970.13;5069508;28;20049;-81
2023/10/26 00:55:41;;;;;;;16.23;10.45;;;;;;;11.02;100.00;98965.88;5067243;28;20093;-80
2023/10/26 00:58:09;;;;;;;19.55;11.93;;;;;;;11.03;100.00;98968.31;5070718;28;20051;-81
2023/10/26 01:00:35;;;;;;;24.10;14.43;;;;;;;10.99;100.00;98961.84;5062023;28;20068;-82
2023/10/26 01:03:02;;;;;;;26.17;16.60;;;;;;;10.92;100.00;98963.66;5060410;28;20112;-82
2023/10/26 01:05:30;;;;;;;29.40;17.35;;;;;;;10.93;100.00;98966.06;5061281;28;20075;-82
2023/10/26 01:08:05;;;;;;;31.90;18.40;;;;;;;10.93;100.00;98965.25;5063143;28;20081;-82
2023/10/26 01:10:34;;;;;;;32.92;19.95;;;;;;;10.95;100.00;98964.06;5068270;28;20132;-81
2023/10/26 01:13:01;;;;;;;33.75;19.90;;;;;;;11.01;100.00;98972.94;5043962;28;20053;-81
2023/10/26 01:15:28;;;;;;;32.92;19.17;;;;;;;10.94;100.00;98978.16;5055136;28;20092;-82
2023/10/26 01:17:54;;;;;;;30.08;18.88;;;;;;;10.99;100.00;98985.41;5058939;28;20113;-81
2023/10/26 01:20:21;;;;;;;33.35;19.25;;;;;;;10.96;100.00;98984.00;5058825;28;20456;-81
2023/10/26 01:22:49;;;;;;;33.97;20.13;;;;;;;10.91;100.00;98983.78;5055231;28;20072;-80
2023/10/26 01:25:16;;;;;;;37.35;21.10;;;;;;;10.95;100.00;98992.84;5058461;28;20049;-80
2023/10/26 01:27:42;;;;;;;36.88;22.25;;;;;;;10.81;100.00;98996.47;5059993;28;20061;-81
2023/10/26 01:30:10;;;;;;;40.08;23.75;;;;;;;10.84;100.00;98993.44;5066719;28;20365;-83
2023/10/26 01:32:37;;;;;;;41.70;24.17;;;;;;;10.97;100.00;98988.22;5066763;28;20053;-83
2023/10/26 01:35:05;;;;;;;42.28;24.10;;;;;;;10.94;100.00;98996.47;5059792;28;20559;-82
2023/10/26 01:37:42;;;;;;;41.50;23.48;;;;;;;10.93;100.00;98992.25;5108423;23;20111;-81
2023/10/26 01:40:20;;;;;;;49.28;25.25;;;;;;;10.99;100.00;98995.88;5068896;28;20071;-81
2023/10/26 01:42:51;;;;;;;41.50;25.10;;;;;;;10.85;100.00;98986.41;5066031;28;20041;-81
2023/10/26 01:45:42;;;;;;;42.00;24.08;;;;;;;10.93;100.00;99002.72;5063305;28;20104;-81
2023/10/26 01:48:11;;;;;;;41.03;22.88;;;;;;;10.75;100.00;98984.16;5046364;28;20064;-81
2023/10/26 01:51:02;;;;;;;40.35;23.98;;;;;;;11.04;100.00;98992.66;5046579;28;20049;-81
2023/10/26 01:53:42;;;;;;;40.92;22.70;;;;;;;11.04;100.00;99008.38;5045095;28;20192;-81
2023/10/26 01:56:10;;;;;;;34.80;21.35;;;;;;;10.94;100.00;99012.16;5045153;28;20049;-80
2023/10/26 01:58:37;;;;;;;33.60;21.23;;;;;;;10.83;100.00;99012.78;5044979;28;20050;-81
2023/10/26 02:01:04;;;;;;;35.53;21.15;;;;;;;10.82;100.00;99019.00;5043465;28;20444;-81
2023/10/26 02:03:30;;;;;;;38.90;22.73;;;;;;;10.79;100.00;99015.97;5037809;28;20084;-80
2023/10/26 02:05:57;;;;;;;36.63;22.40;;;;;;;10.76;100.00;99017.16;5039662;28;20045;-80
2023/10/26 02:08:23;;;;;;;39.65;23.25;;;;;;;10.81;100.00;99027.06;5042641;28;20056;-81
2023/10/26 02:10:50;;;;;;;39.63;22.52;;;;;;;10.84;100.00;99024.84;5041490;28;20045;-81
2023/10/26 02:13:18;;;;;;;39.88;23.52;;;;;;;10.95;100.00;99026.88;5034561;28;20060;-81
2023/10/26 02:15:45;;;;;;;39.45;22.38;;;;;;;10.92;100.00;99022.03;5043145;28;20083;-81
2023/10/26 02:18:11;;;;;;;37.72;21.85;;;;;;;10.92;100.00;99008.94;5043022;28;20050;-81
2023/10/26 02:20:38;;;;;;;36.78;23.80;;;;;;;10.95;100.00;99016.41;5043048;28;20105;-81
2023/10/26 02:23:04;;;;;;;40.63;23.42;;;;;;;10.87;100.00;99016.56;5042873;28;20073;-81
2023/10/26 02:25:32;;;;;;;36.90;22.58;;;;;;;11.00;100.00;99010.56;5043344;28;20088;-81
2023/10/26 02:27:59;;;;;;;35.67;22.17;;;;;;;10.95;100.00;99005.94;5042618;28;20045;-81
2023/10/26 02:30:32;;;;;;;35.17;21.55;;;;;;;11.08;100.00;99020.88;5042696;28;20366;-81
2023/10/26 02:32:59;;;;;;;38.40;22.60;;;;;;;11.04;100.00;99016.22;5042547;28;20069;-81
2023/10/26 02:35:25;;;;;;;34.85;22.23;;;;;;;11.07;100.00;99027.09;5041993;28;20053;-81
2023/10/26 02:37:52;;;;;;;38.10;22.70;;;;;;;11.07;100.00;99028.91;5041478;28;20095;-81
2023/10/26 02:40:20;;;;;;;40.90;23.63;;;;;;;11.07;100.00;99024.50;5032912;28;20116;-82
2023/10/26 02:42:46;;;;;;;42.42;24.42;;;;;;;11.12;100.00;99026.50;5040784;28;20051;-80
2023/10/26 02:45:13;;;;;;;39.17;23.67;;;;;;;11.01;100.00;99029.72;5038526;28;20089;-82
2023/10/26 02:47:41;;;;;;;40.42;24.42;;;;;;;11.06;100.00;99038.59;5036168;28;20133;-79
2023/10/26 02:50:09;;;;;;;37.85;22.92;;;;;;;10.90;100.00;99028.47;5037122;28;20042;-81
2023/10/26 02:52:36;;;;;;;38.25;23.30;;;;;;;10.90;100.00;99028.47;5040477;28;20112;-80
2023/10/26 02:55:03;;;;;;;37.35;21.90;;;;;;;10.92;100.00;99042.16;5041608;28;20053;-81
2023/10/26 02:57:30;;;;;;;37.30;23.27;;;;;;;11.04;100.00;99032.75;5040213;28;20084;-80
2023/10/26 02:59:56;;;;;;;36.53;23.42;;;;;;;10.97;100.00;99032.72;5042696;28;20148;-80
2023/10/26 03:02:23;;;;;;;38.50;22.83;;;;;;;11.03;100.00;99032.94;5042428;28;20092;-79
2023/10/26 03:04:51;;;;;;;33.50;20.77;;;;;;;11.01;100.00;99034.94;5041771;28;20053;-80
2023/10/26 03:07:22;;;;;;;34.60;20.80;;;;;;;10.92;100.00;99010.75;5043960;28;20077;-80
2023/10/26 03:09:49;;;;;;;28.95;20.15;;;;;;;10.85;100.00;99023.84;5044861;28;20053;-80
2023/10/26 03:12:16;;;;;;;28.83;20.13;;;;;;;10.82;100.00;99021.63;5044366;28;20045;-81
2023/10/26 03:14:42;;;;;;;30.27;20.50;;;;;;;10.81;100.00;99025.25;5038548;28;20085;-81
2023/10/26 03:17:09;;;;;;;29.48;20.05;;;;;;;10.85;100.00;99020.44;5038842;28;20128;-81
2023/10/26 03:19:36;;;;;;;28.25;18.95;;;;;;;10.80;100.00;99018.41;5041975;28;20080;-80
2023/10/26 03:22:04;;;;;;;27.98;19.52;;;;;;;10.90;100.00;99023.22;5044572;28;20461;-80
2023/10/26 03:24:31;;;;;;;31.08;19.95;;;;;;;10.86;100.00;99022.84;5047617;28;20126;-80
2023/10/26 03:26:57;;;;;;;29.33;19.25;;;;;;;10.84;100.00;99024.84;5046764;28;20128;-80
2023/10/26 03:29:25;;;;;;;26.85;18.85;;;;;;;10.78;100.00;99023.00;5044543;28;20150;-81
2023/10/26 03:31:51;;;;;;;26.33;18.10;;;;;;;10.79;100.00;99029.88;5044475;28;20129;-82
2023/10/26 03:34:18;;;;;;;30.30;18.48;;;;;;;10.78;100.00;99024.81;5045388;28;20064;-81
2023/10/26 03:36:45;;;;;;;27.02;19.67;;;;;;;10.77;100.00;99029.25;5044441;28;20100;-82
2023/10/26 03:39:15;;;;;;;27.60;18.70;;;;;;;10.74;100.00;99023.59;5043802;28;20507;-82
2023/10/26 03:41:42;;;;;;;24.30;18.02;;;;;;;10.77;100.00;99018.78;5042671;28;20468;-82
2023/10/26 03:44:09;;;;;;;26.70;18.83;;;;;;;10.76;100.00;99017.16;5040592;28;20520;-80
2023/10/26 03:46:35;;;;;;;26.17;17.35;;;;;;;10.79;100.00;99022.00;5042290;28;20128;-81
2023/10/26 03:49:01;;;;;;;28.73;19.85;;;;;;;10.77;100.00;99024.00;5041895;28;20516;-80
2023/10/26 03:51:28;;;;;;;26.20;17.63;;;;;;;10.79;100.00;99026.44;5041835;28;20131;-79
2023/10/26 03:53:54;;;;;;;27.55;18.48;;;;;;;10.70;100.00;99028.41;5046205;28;20187;-81
2023/10/26 03:56:22;;;;;;;28.25;18.27;;;;;;;10.79;100.00;99029.88;5042556;28;20131;-81
2023/10/26 03:58:51;;;;;;;26.08;17.85;;;;;;;10.77;100.00;99024.00;5038679;28;20120;-81
2023/10/26 04:01:17;;;;;;;25.15;17.25;;;;;;;10.85;100.00;99025.66;5040913;28;20085;-81
2023/10/26 04:03:44;;;;;;;28.65;17.58;;;;;;;10.83;100.00;99018.00;5041087;28;20084;-80
2023/10/26 04:06:10;;;;;;;21.23;15.88;;;;;;;10.77;100.00;99024.00;5040639;28;20256;-82
2023/10/26 04:08:40;;;;;;;24.00;16.27;;;;;;;10.83;100.00;99019.81;5037161;28;20105;-81
2023/10/26 04:11:08;;;;;;;23.75;15.38;;;;;;;10.70;100.00;99011.91;5036168;28;20109;-80
2023/10/26 04:13:36;;;;;;;24.80;17.05;;;;;;;10.74;100.00;99008.72;5038462;28;20140;-82
2023/10/26 04:16:04;;;;;;;24.58;17.17;;;;;;;10.74;100.00;99013.13;5039405;28;20476;-80
2023/10/26 04:18:30;;;;;;;25.00;16.63;;;;;;;10.69;100.00;99002.44;5039680;28;20056;-81
2023/10/26 04:20:57;;;;;;;24.17;16.63;;;;;;;10.78;100.00;99017.78;5039061;28;20474;-81
2023/10/26 04:23:24;;;;;;;24.13;17.42;;;;;;;10.74;100.00;99024.41;5040081;28;20096;-82
2023/10/26 04:25:51;;;;;;;27.90;17.63;;;;;;;10.61;100.00;99009.47;5040027;28;20509;-81
2023/10/26 04:28:18;;;;;;;27.52;18.02;;;;;;;10.68;100.00;99014.72;5042486;28;20136;-81
2023/10/26 04:30:46;;;;;;;24.73;17.27;;;;;;;10.70;100.00;99002.25;5042151;28;20088;-82
2023/10/26 04:33:13;;;;;;;27.70;17.40;;;;;;;10.66;100.00;99010.69;5042281;28;20053;-81
2023/10/26 04:35:41;;;;;;;25.55;17.85;;;;;;;10.65;100.00;99004.66;5042859;28;20569;-81
2023/10/26 04:38:09;;;;;;;26.48;17.60;;;;;;;10.60;100.00;99007.84;5041417;28;20076;-82
2023/10/26 04:40:35;;;;;;;25.92;16.48;;;;;;;10.69;100.00;99010.28;5042015;28;20053;-82
2023/10/26 04:43:03;;;;;;;26.40;16.67;;;;;;;10.61;100.00;99013.88;5040849;28;20145;-82
2023/10/26 04:45:30;;;;;;;25.02;17.05;;;;;;;10.59;100.00;99000.19;5043217;28;20107;-81
2023/10/26 04:47:58;;;;;;;25.40;16.65;;;;;;;10.60;100.00;99001.81;5042044;28;20111;-82
2023/10/26 04:50:25;;;;;;;25.77;17.25;;;;;;;10.56;100.00;99003.19;5041008;28;20491;-83
2023/10/26 04:52:51;;;;;;;23.88;17.23;;;;;;;10.58;100.00;99004.63;5041199;28;20076;-81
2023/10/26 04:55:18;;;;;;;24.23;17.13;;;;;;;10.60;100.00;99013.06;5040079;28;20049;-81
2023/10/26 04:57:45;;;;;;;28.38;18.02;;;;;;;10.56;100.00;98997.97;5039216;28;20111;-81
2023/10/26 05:00:12;;;;;;;26.00;18.50;;;;;;;10.66;100.00;99008.88;5038271;28;20049;-79
2023/10/26 05:02:41;;;;;;;29.80;17.40;;;;;;;10.62;100.00;98999.81;5038635;28;20128;-80
2023/10/26 05:05:09;;;;;;;26.60;18.33;;;;;;;10.58;100.00;99003.81;5040952;28;20085;-81
2023/10/26 05:07:36;;;;;;;27.33;18.80;;;;;;;10.57;100.00;99000.38;5040394;28;20061;-80
2023/10/26 05:10:03;;;;;;;25.08;17.30;;;;;;;10.54;100.00;98994.75;5040113;28;20595;-80
2023/10/26 05:12:30;;;;;;;29.13;18.30;;;;;;;10.62;100.00;98994.56;5038739;28;20103;-81
2023/10/26 05:14:56;;;;;;;33.65;18.73;;;;;;;10.53;100.00;99006.22;5039211;28;20222;-81
2023/10/26 05:17:23;;;;;;;28.05;18.52;;;;;;;10.43;100.00;98995.28;5039490;28;20056;-81
2023/10/26 05:19:50;;;;;;;29.15;19.60;;;;;;;10.52;100.00;98999.34;5039552;28;20077;-83
2023/10/26 05:22:19;;;;;;;27.73;19.13;;;;;;;10.62;100.00;99002.44;5038236;28;20101;-83
2023/10/26 05:24:48;;;;;;;28.48;18.63;;;;;;;10.58;100.00;98999.38;5038124;28;20136;-81
2023/10/26 05:27:15;;;;;;;27.98;20.08;;;;;;;10.52;100.00;98997.56;5037682;28;20049;-81
2023/10/26 05:29:43;;;;;;;25.65;18.35;;;;;;;10.59;100.00;98997.59;5037777;28;20068;-84
2023/10/26 05:32:09;;;;;;;27.02;18.05;;;;;;;10.62;100.00;98987.53;5039730;28;20132;-82
2023/10/26 05:34:37;;;;;;;29.00;18.63;;;;;;;10.60;100.00;98980.88;5025235;28;20389;-80
2023/10/26 05:37:04;;;;;;;25.30;17.73;;;;;;;10.60;100.00;98981.69;5035499;28;20113;-81
2023/10/26 05:39:34;;;;;;;27.95;18.33;;;;;;;10.57;100.00;98983.88;5036356;28;20133;-79
2023/10/26 05:42:04;;;;;;;29.55;18.13;;;;;;;10.58;100.00;98982.88;5034477;28;20068;-81
2023/10/26 05:44:31;;;;;;;26.02;17.77;;;;;;;10.61;100.00;98978.06;5037664;28;20113;-82
2023/10/26 05:46:57;;;;;;;27.17;17.38;;;;;;;10.53;100.00;98974.81;5037182;28;20053;-82
2023/10/26 05:49:26;;;;;;;30.40;17.15;;;;;;;10.55;100.00;98988.50;5031689;28;20068;-82
2023/10/26 05:51:53;;;;;;;27.30;17.63;;;;;;;10.44;100.00;98987.25;5037954;28;20080;-82
2023/10/26 05:54:21;;;;;;;30.70;18.50;;;;;;;10.44;100.00;98981.22;5039985;28;20087;-81
2023/10/26 05:56:49;;;;;;;27.55;18.70;;;;;;;10.37;100.00;98978.59;5036231;28;20041;-82
2023/10/26 05:59:15;;;;;;;26.38;17.15;;;;;;;10.34;100.00;98981.59;5035224;28;20177;-81
2023/10/26 06:01:42;;;;;;;27.38;18.27;;;;;;;10.27;100.00;98967.69;5037142;28;20136;-82
2023/10/26 06:04:08;;;;;;;28.05;17.10;;;;;;;10.13;100.00;98969.41;5041269;28;20425;-82
2023/10/26 06:06:35;;;;;;;31.02;18.80;;;;;;;10.13;100.00;98958.94;5037443;28;20128;-82
2023/10/26 06:09:03;;;;;;;30.00;18.40;;;;;;;10.06;100.00;98968.56;5038478;28;20421;-82
2023/10/26 06:11:30;;;;;;;29.40;17.23;;;;;;;9.99;100.00;98973.75;5041172;28;20048;-82
2023/10/26 06:13:58;;;;;;;31.30;19.05;;;;;;;9.95;100.00;98975.13;5034624;28;20081;-82
2023/10/26 06:16:24;;;;;;;30.05;18.20;;;;;;;9.87;100.00;98977.09;5033414;28;20119;-81
2023/10/26 06:18:51;;;;;;;31.20;19.13;;;;;;;9.87;100.00;98974.50;5032906;28;20412;-81
2023/10/26 06:21:18;;;;;;;32.08;18.58;;;;;;;9.87;100.00;98980.53;5037025;28;20052;-82
2023/10/26 06:23:45;;;;;;;32.92;18.90;;;;;;;9.77;100.00;98979.25;5048859;28;20072;-82
2023/10/26 06:26:12;;;;;;;33.80;20.95;;;;;;;9.78;100.00;98980.84;5042296;28;20049;-82
2023/10/26 06:28:38;;;;;;;31.60;20.15;;;;;;;9.70;100.00;98967.94;5048939;28;20049;-81
2023/10/26 06:31:10;;;;;;;34.85;19.08;;;;;;;9.78;100.00;98980.84;5048783;28;20120;-81
2023/10/26 06:33:37;;;;;;;33.75;19.50;;;;;;;9.70;100.00;98981.00;5043984;28;20029;-82
2023/10/26 06:36:05;;;;;;;33.13;18.67;;;;;;;9.70;100.00;98981.00;5054832;28;20048;-82
2023/10/26 06:38:31;;;;;;;31.85;18.88;;;;;;;9.72;100.00;98995.47;5058668;28;20046;-81
2023/10/26 06:40:58;;;;;;;35.72;20.33;;;;;;;9.77;100.00;98993.09;5046496;28;20049;-83
2023/10/26 06:43:25;;;;;;;34.30;19.35;;;;;;;9.87;100.00;98995.38;5041970;28;20080;-83
2023/10/26 06:49:30;;;;;;;39.40;21.38;;;;;;;9.83;100.00;98978.47;5008508;28;20078;-83
2023/10/26 06:55:16;;;;;;;33.97;19.52;;;;;;;9.93;100.00;98994.59;5008400;28;20054;-85
2023/10/26 06:57:43;;;;;;;34.30;20.00;;;;;;;10.02;100.00;99006.53;5040880;28;20569;-82
2023/10/26 07:00:11;;;;;;;33.20;19.48;;;;;;;10.13;100.00;99005.19;5034056;28;20050;-82
2023/10/26 07:02:38;;;;;;;34.42;20.13;;;;;;;10.17;100.00;98999.38;5041139;28;20046;-82
2023/10/26 07:05:05;;;;;;;33.13;19.83;;;;;;;10.25;100.00;99003.69;5041324;28;20061;-81
2023/10/26 07:07:35;;;;;;;30.75;18.67;;;;;;;10.35;100.00;99004.13;5041405;28;20053;-82
2023/10/26 07:10:02;;;;;;;33.47;21.02;;;;;;;10.41;100.00;99005.13;5041157;28;20060;-82
2023/10/26 07:12:31;;;;;;;36.47;20.40;;;;;;;10.52;100.00;98997.56;5040333;28;20504;-82
2023/10/26 07:14:59;;;;;;;38.20;21.15;;;;;;;10.63;100.00;99002.22;5040617;28;20132;-82
2023/10/26 07:17:31;;;;;;;34.83;22.13;;;;;;;10.63;100.00;99004.84;5040742;28;20050;-81
2023/10/26 07:19:58;;;;;;;34.57;20.80;;;;;;;10.77;100.00;99000.47;5040155;28;20053;-82
2023/10/26 07:22:25;;;;;;;34.30;21.05;;;;;;;10.91;100.00;99002.09;5040056;28;20045;-82
2023/10/26 07:24:57;;;;;;;31.65;19.95;;;;;;;10.86;100.00;98988.81;5040169;28;20109;-81
2023/10/26 07:27:24;;;;;;;28.00;18.95;;;;;;;10.92;100.00;98985.41;5040305;28;20494;-82
2023/10/26 07:29:50;;;;;;;41.03;25.33;;;;;;;11.13;100.00;98989.66;5040287;28;20057;-81
2023/10/26 07:32:17;;;;;;;27.13;18.92;;;;;;;11.17;100.00;98983.03;5039578;28;20092;-80
2023/10/26 07:34:44;;;;;;;30.35;20.02;;;;;;;11.20;100.00;98974.78;5035765;28;20117;-80
2023/10/26 07:37:10;;;;;;;26.55;18.30;;;;;;;11.01;100.00;98972.13;5050886;23;20057;-80
2023/10/26 07:39:37;;;;;;;25.70;17.50;;;;;;;10.91;100.00;98978.53;5043131;28;20566;-81
2023/10/26 07:42:05;;;;;;;24.02;16.92;;;;;;;10.61;100.00;98978.06;5040503;28;20085;-80
2023/10/26 07:44:33;;;;;;;29.40;18.17;;;;;;;10.69;100.00;98968.44;5038759;28;20137;-81
2023/10/26 07:47:00;;;;;;;25.77;17.63;;;;;;;10.84;100.00;98977.75;5040464;28;20467;-80
2023/10/26 07:49:27;;;;;;;29.90;18.75;;;;;;;10.83;100.00;98973.53;5036322;28;20133;-80
2023/10/26 07:51:53;;;;;;;26.67;17.98;;;;;;;10.81;100.00;98972.91;5047082;28;20057;-81
2023/10/26 07:54:20;;;;;;;25.27;17.35;;;;;;;11.07;100.00;98971.34;5031524;28;20073;-82
2023/10/26 07:56:46;;;;;;;27.63;18.08;;;;;;;11.18;100.00;98968.13;5048345;28;20049;-80
2023/10/26 07:59:14;;;;;;;25.58;18.05;;;;;;;11.29;100.00;98978.00;5032391;28;20075;-80
2023/10/26 08:01:41;;;;;;;29.00;18.33;;;;;;;11.27;100.00;98980.84;5040962;28;20080;-80
2023/10/26 08:04:07;;;;;;;25.80;18.45;;;;;;;11.47;100.00;98987.88;5043049;28;20097;-80
2023/10/26 08:06:34;;;;;;;29.42;18.58;;;;;;;11.38;100.00;98984.63;5035518;28;20076;-81
2023/10/26 08:09:01;;;;;;;29.67;19.15;;;;;;;11.43;100.00;98977.00;5034998;28;20049;-80
2023/10/26 08:11:27;;;;;;;26.98;18.08;;;;;;;11.68;100.00;98979.00;5036909;28;20054;-81
2023/10/26 08:13:54;;;;;;;25.95;17.65;;;;;;;11.87;100.00;98978.19;5044118;28;20080;-81
2023/10/26 08:16:23;;;;;;;28.02;18.70;;;;;;;12.16;100.00;98976.94;5043419;28;20092;-81
2023/10/26 08:18:52;;;;;;;27.30;18.75;;;;;;;12.12;100.00;98971.28;5028807;28;20085;-81
2023/10/26 08:21:19;;;;;;;26.67;18.58;;;;;;;12.27;100.00;98979.72;5051829;28;20107;-81
2023/10/26 08:23:46;;;;;;;27.10;18.35;;;;;;;12.13;100.00;98965.03;5043869;28;20046;-81
2023/10/26 08:26:13;;;;;;;25.73;18.65;;;;;;;12.30;100.00;98970.59;5042980;28;20049;-80
2023/10/26 08:28:40;;;;;;;28.42;20.30;;;;;;;12.32;100.00;98965.16;5041493;28;20064;-79
2023/10/26 08:31:07;;;;;;;28.83;20.30;;;;;;;12.43;100.00;98967.94;5033128;28;20088;-81
2023/10/26 08:33:35;;;;;;;27.20;20.05;;;;;;;12.47;100.00;98957.84;5037111;28;20051;-80
2023/10/26 08:36:04;;;;;;;30.45;20.05;;;;;;;12.49;100.00;98963.69;5042756;28;20057;-81
2023/10/26 08:38:30;;;;;;;32.47;21.30;;;;;;;12.45;100.00;98976.41;5042759;28;20084;-80
2023/10/26 08:40:57;;;;;;;29.88;21.05;;;;;;;12.49;100.00;98977.59;5042927;28;20089;-81
2023/10/26 08:43:24;;;;;;;28.70;20.70;;;;;;;12.49;100.00;98987.28;5035489;28;20132;-80
2023/10/26 08:45:53;;;;;;;27.95;20.48;;;;;;;12.59;100.00;98985.84;5050485;28;20049;-80
2023/10/26 08:48:20;;;;;;;27.17;19.02;;;;;;;12.66;100.00;98977.13;5050937;28;20072;-79
2023/10/26 08:50:49;;;;;;;29.20;21.27;;;;;;;12.86;100.00;98978.63;5035590;28;20132;-80
2023/10/26 08:53:16;;;;;;;26.13;19.63;;;;;;;12.95;100.00;98977.38;5040563;28;20077;-81
2023/10/26 08:55:45;;;;;;;27.30;19.95;;;;;;;12.96;100.00;98973.72;5042121;28;20073;-82
2023/10/26 08:58:12;;;;;;;27.23;21.23;;;;;;;12.91;100.00;98970.94;5040372;28;20072;-80
2023/10/26 09:00:40;;;;;;;31.60;21.70;;;;;;;12.94;100.00;98974.94;5040222;28;20063;-78
2023/10/26 09:03:07;;;;;;;29.23;21.35;;;;;;;12.85;100.00;98982.25;5037706;28;20076;-80
2023/10/26 09:05:34;;;;;;;29.80;22.00;;;;;;;12.66;100.00;98959.56;5031243;28;20077;-78
2023/10/26 09:08:16;;;;;;;33.00;21.63;;;;;;;12.84;100.00;98970.16;5024556;28;20049;-81
2023/10/26 09:10:43;;;;;;;33.22;22.48;;;;;;;12.69;100.00;98982.78;5036606;28;20059;-81
2023/10/26 09:13:11;;;;;;;31.13;21.80;;;;;;;13.04;100.00;98992.88;5044228;28;20084;-81
2023/10/26 09:15:48;;;;;;;30.60;20.92;;;;;;;13.18;100.00;99003.13;5035982;28;20060;-80
2023/10/26 09:18:16;;;;;;;30.60;21.65;;;;;;;13.20;100.00;98987.94;5031372;28;20075;-79
2023/10/26 09:20:43;;;;;;;28.50;20.52;;;;;;;13.06;100.00;98988.22;5032223;28;20060;-79
2023/10/26 09:23:28;;;;;;;33.60;23.80;;;;;;;13.01;100.00;98990.66;5041036;28;20050;-80
2023/10/26 09:25:58;;;;;;;34.63;23.20;;;;;;;12.94;100.00;98996.75;5051081;28;20049;-80
2023/10/26 09:28:25;;;;;;;31.17;22.13;;;;;;;12.58;100.00;98993.91;5035117;28;20510;-79
2023/10/26 09:30:58;;;;;;;29.77;22.02;;;;;;;12.60;100.00;98997.94;5050395;28;20140;-80
2023/10/26 09:33:25;;;;;;;34.25;23.05;;;;;;;12.65;100.00;98993.91;5039469;28;20105;-80
2023/10/26 09:35:52;;;;;;;31.48;22.00;;;;;;;12.55;100.00;98986.47;5037615;28;20095;-80
2023/10/26 09:38:33;;;;;;;34.35;23.45;;;;;;;12.41;100.00;98984.91;5038247;28;20049;-80
2023/10/26 09:41:01;;;;;;;34.50;24.75;;;;;;;12.31;100.00;98980.09;5022489;28;20060;-80
2023/10/26 09:43:28;;;;;;;30.83;22.20;;;;;;;12.21;100.00;98982.38;5036081;28;20069;-80
2023/10/26 09:45:55;;;;;;;33.15;21.98;;;;;;;12.19;100.00;98982.56;5047402;28;20046;-81
2023/10/26 09:48:22;;;;;;;32.50;21.52;;;;;;;12.23;100.00;98978.53;5049637;28;20129;-80
2023/10/26 09:50:50;;;;;;;32.60;22.10;;;;;;;12.64;100.00;98979.97;5043170;28;20429;-81
2023/10/26 09:53:18;;;;;;;30.25;21.85;;;;;;;12.54;100.00;98969.09;5021531;28;20080;-81
2023/10/26 09:55:48;;;;;;;30.58;21.20;;;;;;;13.05;100.00;98984.78;5043509;28;20067;-81
2023/10/26 09:58:17;;;;;;;27.58;19.27;;;;;;;12.93;100.00;98971.53;5022975;28;20077;-80
2023/10/26 10:00:44;;;;;;;31.27;21.50;;;;;;;12.88;100.00;98973.16;5022095;28;20563;-81
2023/10/26 10:03:11;;;;;;;31.80;21.85;;;;;;;12.86;100.00;98968.13;5039656;28;20137;-81
2023/10/26 10:05:38;;;;;;;29.58;21.50;;;;;;;13.02;100.00;98971.28;5041825;28;20049;-80
2023/10/26 10:08:05;;;;;;;28.73;20.60;;;;;;;12.80;100.00;98957.66;5041087;28;20050;-79
2023/10/26 10:10:32;;;;;;;28.85;20.23;;;;;;;12.92;100.00;98946.28;5025820;28;20073;-82
2023/10/26 10:13:01;;;;;;;30.67;21.55;;;;;;;13.38;100.00;98949.63;5026182;28;20118;-79
2023/10/26 10:15:35;;;;;;;31.08;21.45;;;;;;;13.28;99.35;98939.56;5043277;28;20095;-81
2023/10/26 10:18:05;;;;;;;27.73;21.45;;;;;;;13.65;97.55;98923.91;5039705;28;20142;-81
2023/10/26 10:20:33;;;;;;;27.17;19.17;;;;;;;13.51;96.92;98928.47;5044478;28;20058;-82
2023/10/26 10:23:01;;;;;;;23.98;16.98;;;;;;;13.67;94.04;98914.00;5019631;28;20080;-79
2023/10/26 10:26:00;;;;;;;20.13;15.40;;;;;;;13.40;92.40;98911.59;5032169;28;20678;-78
2023/10/26 10:28:50;;;;;;;24.38;15.65;;;;;;;13.96;92.12;98897.47;5035924;28;20132;-78
2023/10/26 10:31:39;;;;;;;22.02;17.13;;;;;;;13.58;92.35;98898.50;5041247;28;20077;-81
2023/10/26 10:34:09;;;;;;;26.95;19.63;;;;;;;13.08;94.61;98918.72;5038389;28;20057;-81
2023/10/26 10:37:11;;;;;;;28.60;20.00;;;;;;;13.26;95.66;98931.09;5035186;28;20489;-79
2023/10/26 10:39:38;;;;;;;21.98;16.88;;;;;;;13.33;94.35;98925.81;5046377;28;20503;-81
2023/10/26 10:42:09;;;;;;;21.27;16.15;;;;;;;13.63;94.41;98918.88;5052118;28;20069;-79
2023/10/26 10:44:38;;;;;;;21.80;17.27;;;;;;;13.77;92.57;98906.38;5052955;28;20046;-81
2023/10/26 10:47:05;;;;;;;19.67;16.52;;;;;;;13.54;91.02;98904.41;5044075;28;20109;-80
2023/10/26 10:49:32;;;;;;;23.52;15.77;;;;;;;13.39;89.34;98894.22;5049421;28;20088;-81
2023/10/26 10:51:59;;;;;;;22.50;16.92;;;;;;;13.54;88.77;98886.81;5029908;28;20054;-80
2023/10/26 10:54:26;;;;;;;21.02;15.00;;;;;;;13.52;88.89;98880.16;5024176;28;20073;-79
2023/10/26 10:56:52;;;;;;;19.15;15.05;;;;;;;13.31;89.41;98884.00;5048815;28;20583;-81
2023/10/26 10:59:20;;;;;;;17.30;14.80;;;;;;;13.72;89.67;98862.34;5048391;28;20081;-81
2023/10/26 11:01:51;;;;;;;18.40;14.07;;;;;;;13.29;88.72;98857.94;5031230;28;20083;-81
2023/10/26 11:04:22;;;;;;;17.02;12.85;;;;;;;13.35;88.77;98855.47;5043164;28;20049;-81
2023/10/26 11:06:51;;;;;;;18.27;14.27;;;;;;;13.16;89.32;98852.03;5045032;28;20207;-79
2023/10/26 11:09:22;;;;;;;22.70;14.20;;;;;;;13.45;90.02;98858.41;5038549;28;20060;-79
2023/10/26 11:11:49;;;;;;;20.25;14.55;;;;;;;13.48;90.14;98858.78;5048971;28;20049;-81
2023/10/26 11:14:17;;;;;;;15.85;11.98;;;;;;;13.32;88.48;98835.69;5043827;28;20053;-80
2023/10/26 11:16:44;;;;;;;15.70;11.48;;;;;;;13.64;88.10;98832.94;5044948;28;20114;-81
2023/10/26 11:19:12;;;;;;;17.83;12.57;;;;;;;13.46;87.51;98837.16;5049004;28;20478;-80
2023/10/26 11:21:39;;;;;;;17.45;12.20;;;;;;;13.53;87.65;98831.84;5025480;28;20086;-81